sensor_id;sensor_type;location;lat;lon;timestamp;temperature;humidity
4578;DHT22;2301;47.354;8.528;2023-01-10T00:01:18;5.60;93.70
4578;DHT22;2301;47.354;8.528;2023-01-10T00:03:48;5.60;93.80
4578;DHT22;2301;47.354;8.528;2023-01-10T00:06:25;5.60;94.00
4578;DHT22;2301;47.354;8.528;2023-01-10T00:08:52;5.50;94.00
4578;DHT22;2301;47.354;8.528;2023-01-10T00:11:22;5.50;93.90
4578;DHT22;2301;47.354;8.528;2023-01-10T00:14:13;5.40;93.90
4578;DHT22;2301;47.354;8.528;2023-01-10T00:16:41;5.50;94.20
4578;DHT22;2301;47.354;8.528;2023-01-10T00:19:10;5.50;94.20
4578;DHT22;2301;47.354;8.528;2023-01-10T00:21:55;5.50;94.30
4578;DHT22;2301;47.354;8.528;2023-01-10T00:24:54;5.60;94.40
4578;DHT22;2301;47.354;8.528;2023-01-10T00:27:45;5.60;94.40
4578;DHT22;2301;47.354;8.528;2023-01-10T00:30:14;5.60;94.50
4578;DHT22;2301;47.354;8.528;2023-01-10T00:32:45;5.60;94.50
4578;DHT22;2301;47.354;8.528;2023-01-10T00:35:33;5.60;94.60
4578;DHT22;2301;47.354;8.528;2023-01-10T00:38:17;5.60;94.70
4578;DHT22;2301;47.354;8.528;2023-01-10T00:40:46;5.60;94.70
4578;DHT22;2301;47.354;8.528;2023-01-10T00:43:21;5.60;94.70
4578;DHT22;2301;47.354;8.528;2023-01-10T00:46:06;5.60;94.60
4578;DHT22;2301;47.354;8.528;2023-01-10T00:48:35;5.60;94.70
4578;DHT22;2301;47.354;8.528;2023-01-10T00:51:02;5.70;94.70
4578;DHT22;2301;47.354;8.528;2023-01-10T00:53:32;5.70;94.60
4578;DHT22;2301;47.354;8.528;2023-01-10T00:56:00;5.70;94.70
4578;DHT22;2301;47.354;8.528;2023-01-10T00:58:33;5.80;94.70
4578;DHT22;2301;47.354;8.528;2023-01-10T01:01:00;5.70;94.60
4578;DHT22;2301;47.354;8.528;2023-01-10T01:03:27;5.70;94.60
4578;DHT22;2301;47.354;8.528;2023-01-10T01:06:07;5.80;94.70
4578;DHT22;2301;47.354;8.528;2023-01-10T01:08:38;5.80;94.60
4578;DHT22;2301;47.354;8.528;2023-01-10T01:11:11;5.80;94.60
4578;DHT22;2301;47.354;8.528;2023-01-10T01:13:43;5.80;94.50
4578;DHT22;2301;47.354;8.528;2023-01-10T01:16:18;5.80;94.50
4578;DHT22;2301;47.354;8.528;2023-01-10T01:18:45;5.80;94.60
4578;DHT22;2301;47.354;8.528;2023-01-10T01:21:14;5.80;94.60
4578;DHT22;2301;47.354;8.528;2023-01-10T01:23:46;5.80;94.70
4578;DHT22;2301;47.354;8.528;2023-01-10T01:26:39;6.00;94.70
4578;DHT22;2301;47.354;8.528;2023-01-10T01:29:43;5.90;94.60
4578;DHT22;2301;47.354;8.528;2023-01-10T01:32:18;5.90;94.50
4578;DHT22;2301;47.354;8.528;2023-01-10T01:35:11;5.90;94.60
4578;DHT22;2301;47.354;8.528;2023-01-10T01:40:45;5.90;94.50
4578;DHT22;2301;47.354;8.528;2023-01-10T01:43:21;5.90;94.40
4578;DHT22;2301;47.354;8.528;2023-01-10T01:46:02;5.90;94.40
4578;DHT22;2301;47.354;8.528;2023-01-10T01:48:34;6.00;94.40
4578;DHT22;2301;47.354;8.528;2023-01-10T01:51:07;5.90;94.30
4578;DHT22;2301;47.354;8.528;2023-01-10T01:53:42;6.00;94.40
4578;DHT22;2301;47.354;8.528;2023-01-10T01:56:16;5.90;94.20
4578;DHT22;2301;47.354;8.528;2023-01-10T01:58:51;5.90;94.10
4578;DHT22;2301;47.354;8.528;2023-01-10T02:01:35;5.90;93.90
4578;DHT22;2301;47.354;8.528;2023-01-10T02:11:11;5.80;93.60
4578;DHT22;2301;47.354;8.528;2023-01-10T02:13:48;5.80;93.60
4578;DHT22;2301;47.354;8.528;2023-01-10T02:16:16;5.90;93.60
4578;DHT22;2301;47.354;8.528;2023-01-10T02:18:46;5.90;93.60
4578;DHT22;2301;47.354;8.528;2023-01-10T02:31:22;5.90;93.20
4578;DHT22;2301;47.354;8.528;2023-01-10T02:34:03;5.80;93.20
4578;DHT22;2301;47.354;8.528;2023-01-10T02:46:15;5.80;93.00
4578;DHT22;2301;47.354;8.528;2023-01-10T02:48:53;6.00;93.10
4578;DHT22;2301;47.354;8.528;2023-01-10T02:51:57;5.80;92.90
4578;DHT22;2301;47.354;8.528;2023-01-10T02:54:43;5.90;92.80
4578;DHT22;2301;47.354;8.528;2023-01-10T02:57:30;5.70;92.50
4578;DHT22;2301;47.354;8.528;2023-01-10T03:00:18;5.80;92.60
4578;DHT22;2301;47.354;8.528;2023-01-10T03:03:22;5.90;92.70
4578;DHT22;2301;47.354;8.528;2023-01-10T03:06:06;5.80;92.80
4578;DHT22;2301;47.354;8.528;2023-01-10T03:08:53;5.70;92.80
4578;DHT22;2301;47.354;8.528;2023-01-10T03:12:29;5.70;92.90
4578;DHT22;2301;47.354;8.528;2023-01-10T03:15:36;5.60;92.90
4578;DHT22;2301;47.354;8.528;2023-01-10T03:18:24;5.60;93.00
4578;DHT22;2301;47.354;8.528;2023-01-10T03:21:07;5.60;93.10
4578;DHT22;2301;47.354;8.528;2023-01-10T03:23:42;5.50;93.20
4578;DHT22;2301;47.354;8.528;2023-01-10T03:26:16;5.50;93.20
4578;DHT22;2301;47.354;8.528;2023-01-10T03:29:17;5.60;93.20
4578;DHT22;2301;47.354;8.528;2023-01-10T03:31:50;5.50;93.20
4578;DHT22;2301;47.354;8.528;2023-01-10T03:34:18;5.50;93.30
4578;DHT22;2301;47.354;8.528;2023-01-10T03:36:51;5.50;93.30
4578;DHT22;2301;47.354;8.528;2023-01-10T03:39:22;5.50;93.40
4578;DHT22;2301;47.354;8.528;2023-01-10T03:41:59;5.50;93.40
4578;DHT22;2301;47.354;8.528;2023-01-10T03:44:32;5.50;93.40
4578;DHT22;2301;47.354;8.528;2023-01-10T03:47:12;5.50;93.50
4578;DHT22;2301;47.354;8.528;2023-01-10T03:49:43;5.60;93.60
4578;DHT22;2301;47.354;8.528;2023-01-10T03:52:14;5.50;93.60
4578;DHT22;2301;47.354;8.528;2023-01-10T03:54:43;5.50;93.60
4578;DHT22;2301;47.354;8.528;2023-01-10T03:57:15;5.50;93.60
4578;DHT22;2301;47.354;8.528;2023-01-10T03:59:43;5.50;93.70
4578;DHT22;2301;47.354;8.528;2023-01-10T04:02:11;5.50;93.70
4578;DHT22;2301;47.354;8.528;2023-01-10T04:04:38;5.60;93.80
4578;DHT22;2301;47.354;8.528;2023-01-10T04:07:05;5.60;93.90
4578;DHT22;2301;47.354;8.528;2023-01-10T04:09:31;5.60;93.80
4578;DHT22;2301;47.354;8.528;2023-01-10T04:11:58;5.60;93.90
4578;DHT22;2301;47.354;8.528;2023-01-10T04:14:25;5.70;93.90
4578;DHT22;2301;47.354;8.528;2023-01-10T04:16:54;5.70;93.70
4578;DHT22;2301;47.354;8.528;2023-01-10T04:19:22;5.60;93.70
4578;DHT22;2301;47.354;8.528;2023-01-10T04:21:49;5.70;93.70
4578;DHT22;2301;47.354;8.528;2023-01-10T04:24:16;5.70;93.70
4578;DHT22;2301;47.354;8.528;2023-01-10T04:26:43;5.70;93.50
4578;DHT22;2301;47.354;8.528;2023-01-10T04:29:10;5.80;93.50
4578;DHT22;2301;47.354;8.528;2023-01-10T04:31:37;5.70;93.40
4578;DHT22;2301;47.354;8.528;2023-01-10T04:34:07;5.70;93.10
4578;DHT22;2301;47.354;8.528;2023-01-10T04:36:34;5.80;93.20
4578;DHT22;2301;47.354;8.528;2023-01-10T04:39:02;5.80;92.90
4578;DHT22;2301;47.354;8.528;2023-01-10T04:41:29;5.70;93.10
4578;DHT22;2301;47.354;8.528;2023-01-10T04:43:56;5.80;93.10
4578;DHT22;2301;47.354;8.528;2023-01-10T04:46:23;5.80;93.10
4578;DHT22;2301;47.354;8.528;2023-01-10T04:48:50;5.80;93.10
4578;DHT22;2301;47.354;8.528;2023-01-10T04:51:18;5.80;93.00
4578;DHT22;2301;47.354;8.528;2023-01-10T04:53:45;5.80;92.90
4578;DHT22;2301;47.354;8.528;2023-01-10T04:56:15;5.90;92.70
4578;DHT22;2301;47.354;8.528;2023-01-10T04:58:43;5.80;92.70
4578;DHT22;2301;47.354;8.528;2023-01-10T05:01:11;5.90;92.80
4578;DHT22;2301;47.354;8.528;2023-01-10T05:03:39;5.90;92.70
4578;DHT22;2301;47.354;8.528;2023-01-10T05:06:06;5.90;92.80
4578;DHT22;2301;47.354;8.528;2023-01-10T05:08:34;5.90;92.80
4578;DHT22;2301;47.354;8.528;2023-01-10T05:11:02;5.90;92.80
4578;DHT22;2301;47.354;8.528;2023-01-10T05:13:29;5.90;92.80
4578;DHT22;2301;47.354;8.528;2023-01-10T05:15:56;6.00;92.70
4578;DHT22;2301;47.354;8.528;2023-01-10T05:18:24;6.00;92.60
4578;DHT22;2301;47.354;8.528;2023-01-10T05:20:51;6.00;92.50
4578;DHT22;2301;47.354;8.528;2023-01-10T05:23:18;6.00;92.50
4578;DHT22;2301;47.354;8.528;2023-01-10T05:25:46;6.00;92.40
4578;DHT22;2301;47.354;8.528;2023-01-10T05:28:13;6.00;92.40
4578;DHT22;2301;47.354;8.528;2023-01-10T05:30:41;6.00;92.40
4578;DHT22;2301;47.354;8.528;2023-01-10T05:33:08;6.00;92.40
4578;DHT22;2301;47.354;8.528;2023-01-10T05:35:35;5.90;92.20
4578;DHT22;2301;47.354;8.528;2023-01-10T05:38:02;5.90;92.30
4578;DHT22;2301;47.354;8.528;2023-01-10T05:40:30;6.00;92.40
4578;DHT22;2301;47.354;8.528;2023-01-10T05:42:58;6.00;92.30
4578;DHT22;2301;47.354;8.528;2023-01-10T05:45:25;6.00;92.40
4578;DHT22;2301;47.354;8.528;2023-01-10T05:47:53;6.00;92.80
4578;DHT22;2301;47.354;8.528;2023-01-10T05:50:20;6.00;92.40
4578;DHT22;2301;47.354;8.528;2023-01-10T05:52:46;6.00;92.40
4578;DHT22;2301;47.354;8.528;2023-01-10T05:55:13;5.90;92.30
4578;DHT22;2301;47.354;8.528;2023-01-10T05:57:40;5.90;92.20
4578;DHT22;2301;47.354;8.528;2023-01-10T06:00:10;5.80;92.10
4578;DHT22;2301;47.354;8.528;2023-01-10T06:02:37;5.80;92.10
4578;DHT22;2301;47.354;8.528;2023-01-10T06:05:05;5.90;92.20
4578;DHT22;2301;47.354;8.528;2023-01-10T06:07:32;5.90;92.30
4578;DHT22;2301;47.354;8.528;2023-01-10T06:09:59;5.90;92.30
4578;DHT22;2301;47.354;8.528;2023-01-10T06:12:26;5.90;92.30
4578;DHT22;2301;47.354;8.528;2023-01-10T06:14:53;6.00;92.30
4578;DHT22;2301;47.354;8.528;2023-01-10T06:17:21;5.90;92.20
4578;DHT22;2301;47.354;8.528;2023-01-10T06:19:48;6.00;92.30
4578;DHT22;2301;47.354;8.528;2023-01-10T06:22:16;6.00;92.20
4578;DHT22;2301;47.354;8.528;2023-01-10T06:24:43;5.90;92.20
4578;DHT22;2301;47.354;8.528;2023-01-10T06:27:10;5.90;92.30
4578;DHT22;2301;47.354;8.528;2023-01-10T06:29:39;5.90;92.30
4578;DHT22;2301;47.354;8.528;2023-01-10T06:32:06;5.90;92.30
4578;DHT22;2301;47.354;8.528;2023-01-10T06:34:34;5.90;92.10
4578;DHT22;2301;47.354;8.528;2023-01-10T06:37:01;5.90;92.10
4578;DHT22;2301;47.354;8.528;2023-01-10T06:39:28;6.00;92.10
4578;DHT22;2301;47.354;8.528;2023-01-10T06:41:55;5.80;91.80
4578;DHT22;2301;47.354;8.528;2023-01-10T06:44:22;5.90;92.00
4578;DHT22;2301;47.354;8.528;2023-01-10T06:46:49;5.90;91.90
4578;DHT22;2301;47.354;8.528;2023-01-10T06:49:16;5.90;92.00
4578;DHT22;2301;47.354;8.528;2023-01-10T06:51:45;6.00;92.00
4578;DHT22;2301;47.354;8.528;2023-01-10T06:54:12;6.00;92.00
4578;DHT22;2301;47.354;8.528;2023-01-10T06:56:39;6.00;92.30
4578;DHT22;2301;47.354;8.528;2023-01-10T06:59:07;5.90;91.90
4578;DHT22;2301;47.354;8.528;2023-01-10T07:01:34;6.00;91.80
4578;DHT22;2301;47.354;8.528;2023-01-10T07:04:01;6.00;91.90
4578;DHT22;2301;47.354;8.528;2023-01-10T07:06:28;6.00;91.90
4578;DHT22;2301;47.354;8.528;2023-01-10T07:08:57;6.00;91.90
4578;DHT22;2301;47.354;8.528;2023-01-10T07:11:24;6.00;91.80
4578;DHT22;2301;47.354;8.528;2023-01-10T07:13:51;6.00;92.10
4578;DHT22;2301;47.354;8.528;2023-01-10T07:16:19;6.00;91.80
4578;DHT22;2301;47.354;8.528;2023-01-10T07:18:46;6.00;91.80
4578;DHT22;2301;47.354;8.528;2023-01-10T07:21:13;6.00;91.90
4578;DHT22;2301;47.354;8.528;2023-01-10T07:23:41;6.00;92.00
4578;DHT22;2301;47.354;8.528;2023-01-10T07:26:10;6.00;91.90
4578;DHT22;2301;47.354;8.528;2023-01-10T07:28:42;6.10;91.90
4578;DHT22;2301;47.354;8.528;2023-01-10T07:31:09;6.10;91.70
4578;DHT22;2301;47.354;8.528;2023-01-10T07:33:38;6.10;91.60
4578;DHT22;2301;47.354;8.528;2023-01-10T07:36:05;6.00;91.30
4578;DHT22;2301;47.354;8.528;2023-01-10T07:38:32;6.10;91.30
4578;DHT22;2301;47.354;8.528;2023-01-10T07:41:00;6.10;91.30
4578;DHT22;2301;47.354;8.528;2023-01-10T07:43:29;6.20;91.30
4578;DHT22;2301;47.354;8.528;2023-01-10T07:45:57;6.10;91.10
4578;DHT22;2301;47.354;8.528;2023-01-10T07:48:24;6.10;91.10
4578;DHT22;2301;47.354;8.528;2023-01-10T07:50:55;6.10;91.00
4578;DHT22;2301;47.354;8.528;2023-01-10T07:53:22;6.10;90.80
4578;DHT22;2301;47.354;8.528;2023-01-10T07:55:49;6.20;90.70
4578;DHT22;2301;47.354;8.528;2023-01-10T07:58:16;6.20;90.80
4578;DHT22;2301;47.354;8.528;2023-01-10T08:00:44;6.20;90.90
4578;DHT22;2301;47.354;8.528;2023-01-10T08:03:14;6.20;90.80
4578;DHT22;2301;47.354;8.528;2023-01-10T08:05:41;6.20;90.80
4578;DHT22;2301;47.354;8.528;2023-01-10T08:08:10;6.20;90.70
4578;DHT22;2301;47.354;8.528;2023-01-10T08:10:38;6.10;90.60
4578;DHT22;2301;47.354;8.528;2023-01-10T08:13:05;6.10;90.60
4578;DHT22;2301;47.354;8.528;2023-01-10T08:15:32;6.10;91.10
4578;DHT22;2301;47.354;8.528;2023-01-10T08:18:01;6.10;90.90
4578;DHT22;2301;47.354;8.528;2023-01-10T08:20:29;6.20;91.00
4578;DHT22;2301;47.354;8.528;2023-01-10T08:22:56;6.20;91.00
4578;DHT22;2301;47.354;8.528;2023-01-10T08:25:24;6.10;91.00
4578;DHT22;2301;47.354;8.528;2023-01-10T08:27:51;6.30;91.20
4578;DHT22;2301;47.354;8.528;2023-01-10T08:30:18;6.30;91.10
4578;DHT22;2301;47.354;8.528;2023-01-10T08:32:45;6.20;90.90
4578;DHT22;2301;47.354;8.528;2023-01-10T08:35:14;6.20;90.70
4578;DHT22;2301;47.354;8.528;2023-01-10T08:37:41;6.20;90.70
4578;DHT22;2301;47.354;8.528;2023-01-10T08:40:08;6.20;90.70
4578;DHT22;2301;47.354;8.528;2023-01-10T08:42:36;6.30;90.80
4578;DHT22;2301;47.354;8.528;2023-01-10T08:45:03;6.30;90.90
4578;DHT22;2301;47.354;8.528;2023-01-10T08:47:30;6.40;90.90
4578;DHT22;2301;47.354;8.528;2023-01-10T08:49:57;6.40;90.90
4578;DHT22;2301;47.354;8.528;2023-01-10T08:52:25;6.60;90.80
4578;DHT22;2301;47.354;8.528;2023-01-10T08:54:52;6.60;90.80
4578;DHT22;2301;47.354;8.528;2023-01-10T08:57:19;6.50;90.60
4578;DHT22;2301;47.354;8.528;2023-01-10T08:59:46;6.50;90.10
4578;DHT22;2301;47.354;8.528;2023-01-10T09:02:13;6.40;89.90
4578;DHT22;2301;47.354;8.528;2023-01-10T09:04:40;6.50;90.30
4578;DHT22;2301;47.354;8.528;2023-01-10T09:07:07;6.60;90.50
4578;DHT22;2301;47.354;8.528;2023-01-10T09:09:36;6.80;90.70
4578;DHT22;2301;47.354;8.528;2023-01-10T09:12:04;6.80;90.50
4578;DHT22;2301;47.354;8.528;2023-01-10T09:14:52;6.90;89.70
4578;DHT22;2301;47.354;8.528;2023-01-10T09:17:19;6.90;89.70
4578;DHT22;2301;47.354;8.528;2023-01-10T09:19:46;6.90;89.50
4578;DHT22;2301;47.354;8.528;2023-01-10T09:22:13;6.90;89.50
4578;DHT22;2301;47.354;8.528;2023-01-10T09:24:41;7.00;89.70
4578;DHT22;2301;47.354;8.528;2023-01-10T09:27:09;7.10;89.60
4578;DHT22;2301;47.354;8.528;2023-01-10T09:29:37;7.20;89.10
4578;DHT22;2301;47.354;8.528;2023-01-10T09:32:04;7.30;89.00
4578;DHT22;2301;47.354;8.528;2023-01-10T09:34:32;7.40;88.90
4578;DHT22;2301;47.354;8.528;2023-01-10T09:36:58;7.50;88.20
4578;DHT22;2301;47.354;8.528;2023-01-10T09:39:26;7.60;87.30
4578;DHT22;2301;47.354;8.528;2023-01-10T09:45:08;7.70;87.30
4578;DHT22;2301;47.354;8.528;2023-01-10T09:47:40;7.70;87.60
4578;DHT22;2301;47.354;8.528;2023-01-10T09:50:20;7.80;87.30
4578;DHT22;2301;47.354;8.528;2023-01-10T09:52:52;7.80;87.10
4578;DHT22;2301;47.354;8.528;2023-01-10T09:55:24;7.90;87.30
4578;DHT22;2301;47.354;8.528;2023-01-10T09:57:55;8.10;87.60
4578;DHT22;2301;47.354;8.528;2023-01-10T10:00:34;8.30;86.90
4578;DHT22;2301;47.354;8.528;2023-01-10T10:03:04;8.60;86.80
4578;DHT22;2301;47.354;8.528;2023-01-10T10:05:36;8.60;83.80
4578;DHT22;2301;47.354;8.528;2023-01-10T10:08:07;8.90;85.10
4578;DHT22;2301;47.354;8.528;2023-01-10T10:10:46;9.10;85.20
4578;DHT22;2301;47.354;8.528;2023-01-10T10:13:21;9.30;84.80
4578;DHT22;2301;47.354;8.528;2023-01-10T10:15:58;9.30;83.60
4578;DHT22;2301;47.354;8.528;2023-01-10T10:18:37;9.40;83.50
4578;DHT22;2301;47.354;8.528;2023-01-10T10:21:09;9.60;83.50
4578;DHT22;2301;47.354;8.528;2023-01-10T10:23:59;9.90;83.40
4578;DHT22;2301;47.354;8.528;2023-01-10T10:26:32;10.10;80.10
4578;DHT22;2301;47.354;8.528;2023-01-10T10:29:13;10.00;78.00
4578;DHT22;2301;47.354;8.528;2023-01-10T10:32:07;10.10;78.30
4578;DHT22;2301;47.354;8.528;2023-01-10T10:34:40;10.20;78.20
4578;DHT22;2301;47.354;8.528;2023-01-10T10:37:12;10.40;77.70
4578;DHT22;2301;47.354;8.528;2023-01-10T10:39:46;10.60;77.20
4578;DHT22;2301;47.354;8.528;2023-01-10T10:42:17;10.90;78.40
4578;DHT22;2301;47.354;8.528;2023-01-10T10:44:48;11.10;78.00
4578;DHT22;2301;47.354;8.528;2023-01-10T10:47:20;11.20;75.50
4578;DHT22;2301;47.354;8.528;2023-01-10T10:49:53;11.10;73.20
4578;DHT22;2301;47.354;8.528;2023-01-10T10:52:24;11.00;73.10
4578;DHT22;2301;47.354;8.528;2023-01-10T10:54:52;10.80;74.10
4578;DHT22;2301;47.354;8.528;2023-01-10T10:57:23;10.70;73.80
4578;DHT22;2301;47.354;8.528;2023-01-10T10:59:51;10.60;73.70
4578;DHT22;2301;47.354;8.528;2023-01-10T11:02:24;10.40;72.20
4578;DHT22;2301;47.354;8.528;2023-01-10T11:04:55;10.60;73.40
4578;DHT22;2301;47.354;8.528;2023-01-10T11:07:23;10.60;73.70
4578;DHT22;2301;47.354;8.528;2023-01-10T11:09:53;10.70;73.80
4578;DHT22;2301;47.354;8.528;2023-01-10T11:12:29;10.90;73.10
4578;DHT22;2301;47.354;8.528;2023-01-10T11:14:57;11.10;71.20
4578;DHT22;2301;47.354;8.528;2023-01-10T11:17:30;11.10;71.10
4578;DHT22;2301;47.354;8.528;2023-01-10T11:20:00;11.40;71.30
4578;DHT22;2301;47.354;8.528;2023-01-10T11:22:29;11.50;70.60
4578;DHT22;2301;47.354;8.528;2023-01-10T11:24:59;11.50;69.70
4578;DHT22;2301;47.354;8.528;2023-01-10T11:27:28;11.40;68.70
4578;DHT22;2301;47.354;8.528;2023-01-10T11:29:57;11.30;68.80
4578;DHT22;2301;47.354;8.528;2023-01-10T11:32:33;11.20;69.90
4578;DHT22;2301;47.354;8.528;2023-01-10T11:35:05;11.10;68.50
4578;DHT22;2301;47.354;8.528;2023-01-10T11:37:34;10.80;67.30
4578;DHT22;2301;47.354;8.528;2023-01-10T11:40:23;10.70;69.10
4578;DHT22;2301;47.354;8.528;2023-01-10T11:42:51;10.70;70.00
4578;DHT22;2301;47.354;8.528;2023-01-10T11:45:33;10.70;70.90
4578;DHT22;2301;47.354;8.528;2023-01-10T11:48:15;10.60;69.60
4578;DHT22;2301;47.354;8.528;2023-01-10T11:50:48;10.40;68.00
4578;DHT22;2301;47.354;8.528;2023-01-10T11:53:33;10.30;68.80
4578;DHT22;2301;47.354;8.528;2023-01-10T11:56:02;10.30;69.80
4578;DHT22;2301;47.354;8.528;2023-01-10T11:58:32;10.30;69.70
4578;DHT22;2301;47.354;8.528;2023-01-10T12:01:00;10.30;69.60
4578;DHT22;2301;47.354;8.528;2023-01-10T12:03:31;10.20;68.60
4578;DHT22;2301;47.354;8.528;2023-01-10T12:06:03;10.20;68.70
4578;DHT22;2301;47.354;8.528;2023-01-10T12:08:33;10.10;68.50
4578;DHT22;2301;47.354;8.528;2023-01-10T12:11:03;10.10;67.70
4578;DHT22;2301;47.354;8.528;2023-01-10T12:13:43;10.00;67.40
4578;DHT22;2301;47.354;8.528;2023-01-10T12:16:15;10.10;68.00
4578;DHT22;2301;47.354;8.528;2023-01-10T12:18:44;10.00;66.50
4578;DHT22;2301;47.354;8.528;2023-01-10T12:21:14;9.90;67.60
4578;DHT22;2301;47.354;8.528;2023-01-10T12:23:44;10.00;68.20
4578;DHT22;2301;47.354;8.528;2023-01-10T12:26:12;10.20;68.50
4578;DHT22;2301;47.354;8.528;2023-01-10T12:28:43;10.40;68.60
4578;DHT22;2301;47.354;8.528;2023-01-10T12:31:13;10.60;68.50
4578;DHT22;2301;47.354;8.528;2023-01-10T12:33:46;10.90;67.00
4578;DHT22;2301;47.354;8.528;2023-01-10T12:36:29;11.00;66.30
4578;DHT22;2301;47.354;8.528;2023-01-10T12:39:09;11.20;66.30
4578;DHT22;2301;47.354;8.528;2023-01-10T12:41:51;11.30;64.40
4578;DHT22;2301;47.354;8.528;2023-01-10T12:44:39;11.40;62.90
4578;DHT22;2301;47.354;8.528;2023-01-10T12:47:18;11.40;62.40
4578;DHT22;2301;47.354;8.528;2023-01-10T12:49:53;11.30;61.80
4578;DHT22;2301;47.354;8.528;2023-01-10T12:52:31;11.50;63.40
4578;DHT22;2301;47.354;8.528;2023-01-10T12:55:00;11.70;64.30
4578;DHT22;2301;47.354;8.528;2023-01-10T12:57:30;11.80;63.10
4578;DHT22;2301;47.354;8.528;2023-01-10T13:00:00;11.90;63.90
4578;DHT22;2301;47.354;8.528;2023-01-10T13:02:37;12.00;63.50
4578;DHT22;2301;47.354;8.528;2023-01-10T13:05:15;12.10;62.80
4578;DHT22;2301;47.354;8.528;2023-01-10T13:07:44;12.20;62.50
4578;DHT22;2301;47.354;8.528;2023-01-10T13:10:14;12.30;62.80
4578;DHT22;2301;47.354;8.528;2023-01-10T13:12:47;12.30;62.50
4578;DHT22;2301;47.354;8.528;2023-01-10T13:15:18;12.30;60.70
4578;DHT22;2301;47.354;8.528;2023-01-10T13:17:49;12.30;59.50
4578;DHT22;2301;47.354;8.528;2023-01-10T13:20:36;12.20;58.70
4578;DHT22;2301;47.354;8.528;2023-01-10T13:23:14;12.20;59.60
4578;DHT22;2301;47.354;8.528;2023-01-10T13:25:54;12.20;59.80
4578;DHT22;2301;47.354;8.528;2023-01-10T13:28:23;12.20;59.10
4578;DHT22;2301;47.354;8.528;2023-01-10T13:30:53;12.20;59.50
4578;DHT22;2301;47.354;8.528;2023-01-10T13:33:22;12.10;59.80
4578;DHT22;2301;47.354;8.528;2023-01-10T13:35:53;11.90;58.00
4578;DHT22;2301;47.354;8.528;2023-01-10T13:38:23;11.70;58.30
4578;DHT22;2301;47.354;8.528;2023-01-10T13:41:00;11.80;58.60
4578;DHT22;2301;47.354;8.528;2023-01-10T13:43:36;11.70;58.20
4578;DHT22;2301;47.354;8.528;2023-01-10T13:46:34;11.80;58.70
4578;DHT22;2301;47.354;8.528;2023-01-10T13:52:38;11.70;58.70
4578;DHT22;2301;47.354;8.528;2023-01-10T13:58:01;11.70;59.50
4578;DHT22;2301;47.354;8.528;2023-01-10T14:00:44;11.70;59.40
4578;DHT22;2301;47.354;8.528;2023-01-10T14:03:40;11.70;59.90
4578;DHT22;2301;47.354;8.528;2023-01-10T14:06:15;11.60;59.30
4578;DHT22;2301;47.354;8.528;2023-01-10T14:08:53;11.60;60.10
4578;DHT22;2301;47.354;8.528;2023-01-10T14:11:23;11.50;59.00
4578;DHT22;2301;47.354;8.528;2023-01-10T14:13:53;11.40;58.70
4578;DHT22;2301;47.354;8.528;2023-01-10T14:16:32;11.40;58.60
4578;DHT22;2301;47.354;8.528;2023-01-10T14:19:01;11.30;59.20
4578;DHT22;2301;47.354;8.528;2023-01-10T14:21:34;11.20;59.20
4578;DHT22;2301;47.354;8.528;2023-01-10T14:24:04;11.10;58.70
4578;DHT22;2301;47.354;8.528;2023-01-10T14:26:33;11.00;58.80
4578;DHT22;2301;47.354;8.528;2023-01-10T14:29:05;11.00;58.90
4578;DHT22;2301;47.354;8.528;2023-01-10T14:31:34;10.90;58.70
4578;DHT22;2301;47.354;8.528;2023-01-10T14:34:03;10.80;59.40
4578;DHT22;2301;47.354;8.528;2023-01-10T14:36:43;10.70;59.60
4578;DHT22;2301;47.354;8.528;2023-01-10T14:39:14;10.70;60.10
4578;DHT22;2301;47.354;8.528;2023-01-10T14:41:44;10.60;60.00
4578;DHT22;2301;47.354;8.528;2023-01-10T14:44:16;10.50;60.70
4578;DHT22;2301;47.354;8.528;2023-01-10T14:46:46;10.40;60.40
4578;DHT22;2301;47.354;8.528;2023-01-10T14:49:20;10.40;60.30
4578;DHT22;2301;47.354;8.528;2023-01-10T14:51:48;10.30;60.10
4578;DHT22;2301;47.354;8.528;2023-01-10T14:54:19;10.20;60.00
4578;DHT22;2301;47.354;8.528;2023-01-10T14:56:48;10.10;60.20
4578;DHT22;2301;47.354;8.528;2023-01-10T14:59:25;10.10;61.10
4578;DHT22;2301;47.354;8.528;2023-01-10T15:01:54;10.00;61.30
4578;DHT22;2301;47.354;8.528;2023-01-10T15:04:24;10.00;61.30
4578;DHT22;2301;47.354;8.528;2023-01-10T15:06:56;9.90;62.20
4578;DHT22;2301;47.354;8.528;2023-01-10T15:09:29;9.80;62.50
4578;DHT22;2301;47.354;8.528;2023-01-10T15:11:58;9.80;62.70
4578;DHT22;2301;47.354;8.528;2023-01-10T15:14:25;9.70;63.20
4578;DHT22;2301;47.354;8.528;2023-01-10T15:16:57;9.60;64.00
4578;DHT22;2301;47.354;8.528;2023-01-10T15:19:28;9.60;65.10
4578;DHT22;2301;47.354;8.528;2023-01-10T15:21:57;9.60;65.90
4578;DHT22;2301;47.354;8.528;2023-01-10T15:24:36;9.50;66.30
4578;DHT22;2301;47.354;8.528;2023-01-10T15:27:05;9.40;66.40
4578;DHT22;2301;47.354;8.528;2023-01-10T15:29:33;9.30;66.50
4578;DHT22;2301;47.354;8.528;2023-01-10T15:32:07;9.30;66.20
4578;DHT22;2301;47.354;8.528;2023-01-10T15:34:36;9.20;65.80
4578;DHT22;2301;47.354;8.528;2023-01-10T15:37:05;9.20;65.70
4578;DHT22;2301;47.354;8.528;2023-01-10T15:39:36;9.10;65.70
4578;DHT22;2301;47.354;8.528;2023-01-10T15:42:07;9.00;65.80
4578;DHT22;2301;47.354;8.528;2023-01-10T15:44:37;9.00;66.90
4578;DHT22;2301;47.354;8.528;2023-01-10T15:47:07;9.00;67.90
4578;DHT22;2301;47.354;8.528;2023-01-10T15:49:52;9.00;68.60
4578;DHT22;2301;47.354;8.528;2023-01-10T15:52:20;8.90;69.20
4578;DHT22;2301;47.354;8.528;2023-01-10T15:54:49;8.80;69.50
4578;DHT22;2301;47.354;8.528;2023-01-10T15:57:24;8.80;70.20
4578;DHT22;2301;47.354;8.528;2023-01-10T15:59:52;8.80;70.70
4578;DHT22;2301;47.354;8.528;2023-01-10T16:02:22;8.70;71.20
4578;DHT22;2301;47.354;8.528;2023-01-10T16:04:52;8.60;71.50
4578;DHT22;2301;47.354;8.528;2023-01-10T16:07:22;8.60;72.10
4578;DHT22;2301;47.354;8.528;2023-01-10T16:09:54;8.50;72.30
4578;DHT22;2301;47.354;8.528;2023-01-10T16:12:33;8.50;73.30
4578;DHT22;2301;47.354;8.528;2023-01-10T16:15:34;8.50;72.90
4578;DHT22;2301;47.354;8.528;2023-01-10T16:18:02;8.40;73.10
4578;DHT22;2301;47.354;8.528;2023-01-10T16:20:33;8.40;73.30
4578;DHT22;2301;47.354;8.528;2023-01-10T16:23:01;8.40;73.70
4578;DHT22;2301;47.354;8.528;2023-01-10T16:25:32;8.30;73.60
4578;DHT22;2301;47.354;8.528;2023-01-10T16:28:00;8.30;73.90
4578;DHT22;2301;47.354;8.528;2023-01-10T16:30:30;8.20;74.00
4578;DHT22;2301;47.354;8.528;2023-01-10T16:32:58;8.20;74.20
4578;DHT22;2301;47.354;8.528;2023-01-10T16:35:26;8.20;74.50
4578;DHT22;2301;47.354;8.528;2023-01-10T16:37:54;8.20;74.80
4578;DHT22;2301;47.354;8.528;2023-01-10T16:40:25;8.20;75.70
4578;DHT22;2301;47.354;8.528;2023-01-10T16:42:54;8.20;75.20
4578;DHT22;2301;47.354;8.528;2023-01-10T16:45:39;8.10;75.40
4578;DHT22;2301;47.354;8.528;2023-01-10T16:48:06;8.10;75.90
4578;DHT22;2301;47.354;8.528;2023-01-10T16:50:33;8.10;76.00
4578;DHT22;2301;47.354;8.528;2023-01-10T16:53:01;8.10;76.30
4578;DHT22;2301;47.354;8.528;2023-01-10T16:55:39;8.10;76.50
4578;DHT22;2301;47.354;8.528;2023-01-10T16:58:09;8.10;76.80
4578;DHT22;2301;47.354;8.528;2023-01-10T17:00:37;8.10;76.80
4578;DHT22;2301;47.354;8.528;2023-01-10T17:03:06;8.00;76.80
4578;DHT22;2301;47.354;8.528;2023-01-10T17:05:35;8.00;76.90
4578;DHT22;2301;47.354;8.528;2023-01-10T17:08:02;8.00;77.10
4578;DHT22;2301;47.354;8.528;2023-01-10T17:10:31;8.00;77.30
4578;DHT22;2301;47.354;8.528;2023-01-10T17:13:00;7.90;77.50
4578;DHT22;2301;47.354;8.528;2023-01-10T17:15:29;7.90;77.80
4578;DHT22;2301;47.354;8.528;2023-01-10T17:17:56;7.90;78.20
4578;DHT22;2301;47.354;8.528;2023-01-10T17:20:23;7.90;78.40
4578;DHT22;2301;47.354;8.528;2023-01-10T17:22:50;7.90;78.60
4578;DHT22;2301;47.354;8.528;2023-01-10T17:25:17;7.90;78.60